»·PEaware :: N281VT KAJO-KVCV

N281VT :: KAJO-KVCV

FLIGHT INFORMATION

Flight Status: Arrived
Operator: Privately registered:
United States
More flights under this callsign
Pilot: Gopalakrishna S. (22834)
Aircraft: Unknown
(EPIC)
More flights by this aircraft type
Origin: KAJO Corona Mun
United States
Destination: KVCV Socal Logistics
United States
More flights between these airports :: More routes between these airports
Route: +PDZ V442 APLES
File this flight plan on PilotEdge
Remarks: I11 RATING
Altitude:
(Current/Filed)
9,000ft
Speed:
(Current/Filed)
150kts
Departed: 04-Mar-19 07:17 PM
Arrived: 04-Mar-19 08:10 PM
Distance/Time
Traveled:
43nm/0:53
Distance/Time
To Go:
Arrived

Flight Plot

Page will automatically refresh every two minutes.


Map Options




Map Legend


Flown Route
Filed Route
Departure Airport
Arrival Airport
Navaid (VOR, NDB)
Fix

Horizontal Profiles

Position Reports

Time Latitude Longitude Heading Altitude Ground
Speed
04-Mar-19 19:08 33.896180 -117.603228 2 537ft 0kts
04-Mar-19 19:09 33.896180 -117.603228 2 537ft 0kts
04-Mar-19 19:10 33.896180 -117.603228 2 537ft 0kts
04-Mar-19 19:11 33.896180 -117.603228 2 537ft 0kts
04-Mar-19 19:12 33.896180 -117.603228 2 537ft 0kts
04-Mar-19 19:13 33.896180 -117.603228 2 537ft 0kts
04-Mar-19 19:14 33.896180 -117.603228 2 537ft 0kts
04-Mar-19 19:15 33.896180 -117.603228 2 537ft 0kts
04-Mar-19 19:16 33.897303 -117.598330 89 537ft 29kts
04-Mar-19 19:17 33.897677 -117.602417 267 538ft 105kts
04-Mar-19 19:18 33.920806 -117.617810 49 2239ft 148kts
04-Mar-19 19:19 33.924397 -117.572182 99 3615ft 135kts
04-Mar-19 19:20 33.918140 -117.529498 95 5000ft 127kts
04-Mar-19 19:20 33.932289 -117.500050 40 6211ft 134kts
04-Mar-19 19:22 33.959137 -117.493588 258 7886ft 109kts
04-Mar-19 19:23 33.929264 -117.505787 230 8998ft 130kts
04-Mar-19 19:23 33.910560 -117.534881 269 8988ft 121kts
04-Mar-19 19:24 33.935489 -117.531697 41 8992ft 143kts
04-Mar-19 19:26 33.943668 -117.484549 156 8994ft 141kts
04-Mar-19 19:27 33.919353 -117.499106 254 8991ft 96kts
04-Mar-19 19:27 33.909333 -117.526398 254 8997ft 119kts
04-Mar-19 19:28 33.927155 -117.541211 43 8995ft 159kts
04-Mar-19 19:29 33.957175 -117.503999 19 8992ft 150kts
04-Mar-19 19:30 33.994707 -117.483219 16 8991ft 150kts
04-Mar-19 19:31 34.031740 -117.459513 17 8992ft 151kts
04-Mar-19 19:32 34.069230 -117.437167 15 9000ft 148kts
04-Mar-19 19:33 34.106075 -117.415171 15 9003ft 147kts
04-Mar-19 19:34 34.142558 -117.393238 15 9004ft 147kts
04-Mar-19 19:35 34.179687 -117.371315 14 9006ft 151kts
04-Mar-19 19:36 34.218996 -117.347885 20 9002ft 163kts
04-Mar-19 19:37 34.257194 -117.324367 11 8998ft 146kts
04-Mar-19 19:38 34.296156 -117.300952 24 9000ft 165kts
04-Mar-19 19:39 34.338165 -117.276713 15 9000ft 170kts
04-Mar-19 19:40 34.381148 -117.248137 21 8944ft 178kts
04-Mar-19 19:41 34.422024 -117.223738 12 8995ft 148kts
04-Mar-19 19:42 34.458219 -117.201827 20 8276ft 153kts
04-Mar-19 19:43 34.499366 -117.178697 26 6649ft 167kts
04-Mar-19 19:44 34.535094 -117.152285 9 6602ft 150kts
04-Mar-19 19:45 34.574581 -117.145243 354 6598ft 135kts
04-Mar-19 19:46 34.611187 -117.146157 349 6600ft 131kts
04-Mar-19 19:47 34.647352 -117.152138 338 6600ft 131kts
04-Mar-19 19:48 34.681900 -117.166239 329 6599ft 131kts
04-Mar-19 19:49 34.711529 -117.190570 314 6599ft 128kts
04-Mar-19 19:50 34.739796 -117.217393 314 6599ft 129kts
04-Mar-19 19:51 34.762436 -117.250433 298 6599ft 126kts
04-Mar-19 19:52 34.779255 -117.285677 291 6449ft 121kts
04-Mar-19 19:53 34.789869 -117.325360 282 5213ft 123kts
04-Mar-19 19:54 34.778570 -117.357744 216 5200ft 115kts
04-Mar-19 19:55 34.749242 -117.378280 186 4357ft 123kts
04-Mar-19 19:56 34.714835 -117.379567 187 4335ft 121kts
04-Mar-19 19:57 34.681181 -117.382594 186 3868ft 122kts
04-Mar-19 19:58 34.652300 -117.386366 188 3269ft 127kts
04-Mar-19 19:59 34.612427 -117.386440 178 3258ft 154kts
04-Mar-19 20:00 34.587578 -117.412588 307 3599ft 131kts
04-Mar-19 20:01 34.604569 -117.445996 279 5476ft 124kts
04-Mar-19 20:02 34.613291 -117.490850 279 6010ft 148kts
04-Mar-19 20:03 34.622584 -117.539333 281 6007ft 147kts
04-Mar-19 20:04 34.651321 -117.532297 98 6004ft 145kts
04-Mar-19 20:05 34.639117 -117.491807 117 5900ft 141kts
04-Mar-19 20:06 34.621082 -117.437045 106 4395ft 176kts
04-Mar-19 20:07 34.623438 -117.390486 116 3707ft 108kts
04-Mar-19 20:08 34.603935 -117.365349 189 3236ft 108kts
04-Mar-19 20:09 34.590618 -117.378270 200 2867ft 22kts
04-Mar-19 20:10 34.589851 -117.377827 135 2868ft 7kts
04-Mar-19 20:11 34.587660 -117.375768 305 2871ft 0kts
04-Mar-19 20:12 34.587660 -117.375768 305 2871ft 0kts

Navigation Log

Ident Type
Flight plan parsing failed, navigation log unavailable